createdAt,value
2016-12-31T00:00:49.845Z,74
2016-12-31T00:01:55.865Z,74
2016-12-31T00:03:01.893Z,74
2016-12-31T00:04:07.909Z,74
2016-12-31T00:05:13.931Z,74
2016-12-31T00:06:19.947Z,74
2016-12-31T00:07:25.970Z,74
2016-12-31T00:08:31.987Z,74
2016-12-31T00:09:38.009Z,74
2016-12-31T00:10:44.026Z,74
2016-12-31T00:11:50.042Z,74
2016-12-31T00:12:56.055Z,74
2016-12-31T00:14:02.081Z,74
2016-12-31T00:15:08.099Z,74
2016-12-31T00:16:14.121Z,74
2016-12-31T00:17:20.130Z,74
2016-12-31T00:18:26.158Z,74
2016-12-31T00:19:32.173Z,74
2016-12-31T00:20:38.192Z,74
2016-12-31T00:21:44.218Z,74
2016-12-31T00:22:50.264Z,74
2016-12-31T00:23:56.270Z,74
2016-12-31T00:25:02.290Z,74
2016-12-31T00:26:08.310Z,74
2016-12-31T00:27:14.327Z,74
2016-12-31T00:28:20.340Z,74
2016-12-31T00:29:26.366Z,74
2016-12-31T00:30:32.383Z,74
2016-12-31T00:31:38.398Z,74
2016-12-31T00:32:44.428Z,74
2016-12-31T00:33:50.454Z,74
2016-12-31T00:34:56.469Z,74
2016-12-31T00:36:02.487Z,74
2016-12-31T00:37:08.515Z,74
2016-12-31T00:38:14.529Z,74
2016-12-31T00:39:20.549Z,74
2016-12-31T00:40:26.565Z,74
2016-12-31T00:41:32.596Z,74
2016-12-31T00:42:38.609Z,74
2016-12-31T00:43:44.636Z,74
2016-12-31T00:44:50.654Z,74
2016-12-31T00:45:56.682Z,74
2016-12-31T00:47:02.699Z,74
2016-12-31T00:48:08.718Z,74
2016-12-31T00:49:14.738Z,74
2016-12-31T00:50:20.761Z,74
2016-12-31T00:51:26.787Z,74
2016-12-31T00:52:32.807Z,74
2016-12-31T00:53:38.824Z,74
2016-12-31T00:54:44.845Z,74
2016-12-31T00:55:50.863Z,75
2016-12-31T00:56:56.884Z,74
2016-12-31T00:58:02.904Z,74
2016-12-31T00:59:08.932Z,74
2016-12-31T01:00:14.946Z,74
2016-12-31T01:01:20.982Z,75
2016-12-31T01:02:27.005Z,75
2016-12-31T01:03:33.013Z,75
2016-12-31T01:04:39.032Z,75
2016-12-31T01:05:45.051Z,75
2016-12-31T01:06:51.069Z,75
2016-12-31T01:07:57.091Z,75
2016-12-31T01:09:03.110Z,75
2016-12-31T01:10:09.127Z,75
2016-12-31T01:11:15.157Z,75
2016-12-31T01:12:21.178Z,75
2016-12-31T01:13:27.204Z,75
2016-12-31T01:14:33.221Z,75
2016-12-31T01:15:39.234Z,75
2016-12-31T01:16:45.268Z,75
2016-12-31T01:17:51.285Z,75
2016-12-31T01:18:57.306Z,75
2016-12-31T01:20:03.330Z,75
2016-12-31T01:21:09.353Z,75
2016-12-31T01:22:15.377Z,75
2016-12-31T01:23:21.397Z,75
2016-12-31T01:24:27.415Z,75
2016-12-31T01:25:33.436Z,75
2016-12-31T01:26:39.448Z,75
2016-12-31T01:27:45.470Z,75
2016-12-31T01:28:51.498Z,75
2016-12-31T01:29:57.524Z,75
2016-12-31T01:31:03.536Z,75
2016-12-31T01:32:09.567Z,75
2016-12-31T01:33:15.586Z,75
2016-12-31T01:34:21.603Z,75
2016-12-31T01:35:27.627Z,75
2016-12-31T01:36:33.642Z,75
2016-12-31T01:37:39.671Z,75
2016-12-31T01:38:45.695Z,75
2016-12-31T01:39:51.720Z,75
2016-12-31T01:40:57.737Z,75
2016-12-31T01:42:03.762Z,75
2016-12-31T01:43:09.781Z,75
2016-12-31T01:44:15.800Z,75
2016-12-31T01:45:21.811Z,75
2016-12-31T01:46:27.842Z,75
2016-12-31T01:47:33.859Z,75
2016-12-31T01:48:39.876Z,75
2016-12-31T01:49:45.897Z,75
2016-12-31T01:50:51.924Z,75
2016-12-31T01:51:57.938Z,75
2016-12-31T01:53:03.961Z,75
2016-12-31T01:54:09.993Z,75
2016-12-31T01:55:16.004Z,75
2016-12-31T01:56:22.024Z,75
2016-12-31T01:57:28.046Z,75
2016-12-31T01:58:34.062Z,75
2016-12-31T01:59:40.084Z,75
2016-12-31T02:00:46.116Z,75
2016-12-31T02:01:52.142Z,75
2016-12-31T02:02:58.158Z,75
2016-12-31T02:04:04.175Z,75
2016-12-31T02:05:10.201Z,75
2016-12-31T02:06:16.218Z,75
2016-12-31T02:07:22.242Z,75
2016-12-31T02:08:28.254Z,75
2016-12-31T02:09:34.282Z,75
2016-12-31T02:10:40.301Z,75
2016-12-31T02:11:46.325Z,75
2016-12-31T02:12:52.340Z,75
2016-12-31T02:13:58.360Z,75
2016-12-31T02:15:04.380Z,75
2016-12-31T02:16:10.402Z,75
2016-12-31T02:17:16.424Z,75
2016-12-31T02:18:21.775Z,75
2016-12-31T02:19:27.799Z,75
2016-12-31T02:20:33.820Z,75
2016-12-31T02:21:39.841Z,75
2016-12-31T02:22:45.874Z,75
2016-12-31T02:23:51.887Z,75
2016-12-31T02:24:57.907Z,75
2016-12-31T02:26:03.923Z,75
2016-12-31T02:27:09.955Z,75
2016-12-31T02:28:15.969Z,75
2016-12-31T02:29:21.991Z,75
2016-12-31T02:30:28.017Z,75
2016-12-31T02:31:34.043Z,75
2016-12-31T02:32:40.060Z,75
2016-12-31T02:33:46.082Z,75
2016-12-31T02:34:52.104Z,75
2016-12-31T02:35:58.135Z,75
2016-12-31T02:37:04.158Z,75
2016-12-31T02:38:10.180Z,75
2016-12-31T02:39:16.197Z,75
2016-12-31T02:40:22.214Z,75
2016-12-31T02:41:28.224Z,75
2016-12-31T02:42:34.244Z,75
2016-12-31T02:43:40.269Z,75
2016-12-31T02:44:46.285Z,75
2016-12-31T02:45:52.304Z,75
2016-12-31T02:46:58.319Z,75
2016-12-31T02:48:04.342Z,75
2016-12-31T02:49:10.367Z,75
2016-12-31T02:50:16.389Z,75
2016-12-31T02:51:22.406Z,75
2016-12-31T02:52:28.430Z,75
2016-12-31T02:53:34.452Z,75
2016-12-31T02:54:40.472Z,75
2016-12-31T02:55:46.493Z,75
2016-12-31T02:56:52.516Z,75
2016-12-31T02:57:58.538Z,75
2016-12-31T02:59:04.556Z,75
2016-12-31T03:00:10.580Z,75
2016-12-31T03:01:16.594Z,75
2016-12-31T03:02:22.613Z,75
2016-12-31T03:03:28.632Z,75
2016-12-31T03:04:34.653Z,75
2016-12-31T03:05:40.674Z,75
2016-12-31T03:06:46.687Z,75
2016-12-31T03:07:52.704Z,75
2016-12-31T03:08:58.724Z,75
2016-12-31T03:10:04.759Z,75
2016-12-31T03:11:10.773Z,75
2016-12-31T03:12:16.791Z,75
2016-12-31T03:13:22.803Z,75
2016-12-31T03:14:28.830Z,75
2016-12-31T03:15:34.844Z,75
2016-12-31T03:16:40.863Z,75
2016-12-31T03:17:46.889Z,75
2016-12-31T03:18:52.917Z,75
2016-12-31T03:19:58.940Z,75
2016-12-31T03:21:04.960Z,75
2016-12-31T03:22:10.988Z,75
2016-12-31T03:23:17.006Z,75
2016-12-31T03:24:23.026Z,75
2016-12-31T03:25:29.043Z,75
2016-12-31T03:26:35.067Z,75
2016-12-31T03:27:41.077Z,75
2016-12-31T03:28:47.093Z,75
2016-12-31T03:29:53.114Z,75
2016-12-31T03:30:59.147Z,75
2016-12-31T03:32:05.160Z,75
2016-12-31T03:33:11.175Z,75
2016-12-31T03:34:17.192Z,75
2016-12-31T03:35:23.215Z,75
2016-12-31T03:36:29.237Z,75
2016-12-31T03:37:35.254Z,75
2016-12-31T03:38:41.277Z,75
2016-12-31T03:39:47.296Z,75
2016-12-31T03:40:53.316Z,75
2016-12-31T03:41:59.330Z,75
2016-12-31T03:43:05.355Z,75
2016-12-31T03:44:11.374Z,75
2016-12-31T03:45:17.389Z,75
2016-12-31T03:46:23.412Z,76
2016-12-31T03:47:29.439Z,76
2016-12-31T03:48:35.458Z,76
2016-12-31T03:49:41.475Z,76
2016-12-31T03:50:47.498Z,76
2016-12-31T03:51:53.516Z,76
2016-12-31T03:52:59.535Z,76
2016-12-31T03:54:05.553Z,76
2016-12-31T03:55:11.579Z,76
2016-12-31T03:56:17.607Z,76
2016-12-31T03:57:23.628Z,76
2016-12-31T03:58:29.646Z,76
2016-12-31T03:59:35.669Z,76
2016-12-31T04:00:41.693Z,76
2016-12-31T04:01:47.711Z,76
2016-12-31T04:02:53.731Z,76
2016-12-31T04:03:59.753Z,76
2016-12-31T04:05:05.779Z,76
2016-12-31T04:06:11.802Z,76
2016-12-31T04:07:17.820Z,76
2016-12-31T04:08:23.849Z,76
2016-12-31T04:09:29.859Z,76
2016-12-31T04:10:35.879Z,76
2016-12-31T04:11:41.901Z,77
2016-12-31T04:12:47.924Z,77
2016-12-31T04:13:53.936Z,77
2016-12-31T04:14:59.953Z,77
2016-12-31T04:16:05.312Z,77
2016-12-31T04:17:11.337Z,77
2016-12-31T04:18:17.350Z,77
2016-12-31T04:19:23.371Z,77
2016-12-31T04:20:29.390Z,77
2016-12-31T04:21:35.414Z,77
2016-12-31T04:22:41.433Z,77
2016-12-31T04:23:47.459Z,77
2016-12-31T04:24:53.478Z,77
2016-12-31T04:25:59.503Z,77
2016-12-31T04:27:05.526Z,77
2016-12-31T04:28:11.555Z,77
2016-12-31T04:29:17.565Z,78
2016-12-31T04:30:23.590Z,78
2016-12-31T04:31:29.607Z,78
2016-12-31T04:32:35.619Z,78
2016-12-31T04:33:40.980Z,78
2016-12-31T04:34:47.003Z,78
2016-12-31T04:35:53.021Z,78
2016-12-31T04:36:59.035Z,78
2016-12-31T04:38:05.068Z,78
2016-12-31T04:39:11.082Z,78
2016-12-31T04:40:17.097Z,78
2016-12-31T04:41:23.107Z,78
2016-12-31T04:42:29.134Z,78
2016-12-31T04:43:35.156Z,78
2016-12-31T04:44:41.175Z,78
2016-12-31T04:45:47.196Z,78
2016-12-31T04:46:53.224Z,78
2016-12-31T04:47:59.244Z,78
2016-12-31T04:49:05.265Z,78
2016-12-31T04:50:11.285Z,78
2016-12-31T04:51:17.306Z,78
2016-12-31T04:52:23.324Z,78
2016-12-31T04:53:29.343Z,78
2016-12-31T04:54:35.358Z,78
2016-12-31T04:55:41.382Z,78
2016-12-31T04:56:47.399Z,78
2016-12-31T04:57:53.415Z,78
2016-12-31T04:58:59.435Z,78
2016-12-31T05:00:05.458Z,78
2016-12-31T05:01:11.477Z,78
2016-12-31T05:02:17.495Z,78
2016-12-31T05:03:23.524Z,78
2016-12-31T05:04:29.548Z,78
2016-12-31T05:05:35.566Z,78
2016-12-31T05:06:41.580Z,78
2016-12-31T05:07:47.599Z,78
2016-12-31T05:08:53.614Z,78
2016-12-31T05:09:59.626Z,79
2016-12-31T05:11:05.651Z,79
2016-12-31T05:12:11.671Z,79
2016-12-31T05:13:17.691Z,79
2016-12-31T05:14:23.709Z,79
2016-12-31T05:15:29.733Z,79
2016-12-31T05:16:35.754Z,79
2016-12-31T05:17:41.776Z,79
2016-12-31T05:18:47.798Z,79
2016-12-31T05:19:53.818Z,79
2016-12-31T05:20:59.836Z,79
2016-12-31T05:22:05.855Z,79
2016-12-31T05:23:11.876Z,79
2016-12-31T05:24:17.893Z,79
2016-12-31T05:25:23.919Z,79
2016-12-31T05:26:29.945Z,80
2016-12-31T05:27:35.967Z,80
2016-12-31T05:28:41.979Z,80
2016-12-31T05:29:48.000Z,80
2016-12-31T05:30:54.020Z,80
2016-12-31T05:32:00.050Z,80
2016-12-31T05:33:06.069Z,80
2016-12-31T05:34:12.081Z,80
2016-12-31T05:35:18.101Z,80
2016-12-31T05:36:24.121Z,80
2016-12-31T05:37:30.136Z,80
2016-12-31T05:38:36.153Z,80
2016-12-31T05:39:42.170Z,80
2016-12-31T05:40:48.196Z,80
2016-12-31T05:41:54.209Z,80
2016-12-31T05:43:00.230Z,80
2016-12-31T05:44:06.253Z,80
2016-12-31T05:45:12.279Z,80
2016-12-31T05:46:18.293Z,80
2016-12-31T05:47:24.320Z,80
2016-12-31T05:48:30.342Z,80
2016-12-31T05:49:36.350Z,80
2016-12-31T05:50:42.366Z,80
2016-12-31T05:51:48.388Z,80
2016-12-31T05:52:54.426Z,80
2016-12-31T05:54:00.427Z,80
2016-12-31T05:55:06.449Z,80
2016-12-31T05:56:12.469Z,80
2016-12-31T05:57:18.485Z,80
2016-12-31T05:58:24.535Z,80
2016-12-31T05:59:30.555Z,80
2016-12-31T06:00:38.475Z,80
2016-12-31T06:01:44.461Z,80
2016-12-31T06:02:50.486Z,81
2016-12-31T06:03:56.511Z,81
2016-12-31T06:05:02.529Z,81
2016-12-31T06:06:08.556Z,81
2016-12-31T06:07:14.567Z,81
2016-12-31T06:08:20.586Z,81
2016-12-31T06:09:26.597Z,81
2016-12-31T06:10:32.624Z,81
2016-12-31T06:11:38.642Z,81
2016-12-31T06:12:44.656Z,81
2016-12-31T06:13:50.676Z,81
2016-12-31T06:14:56.700Z,81
2016-12-31T06:16:02.718Z,81
2016-12-31T06:17:08.735Z,81
2016-12-31T06:18:14.763Z,81
2016-12-31T06:19:20.784Z,81
2016-12-31T06:20:26.812Z,81
2016-12-31T06:21:32.837Z,81
2016-12-31T06:22:38.975Z,81
2016-12-31T06:23:44.987Z,81
2016-12-31T06:24:51.072Z,81
2016-12-31T06:25:57.093Z,81
2016-12-31T06:27:03.189Z,81
2016-12-31T06:28:09.205Z,81
2016-12-31T06:29:15.287Z,81
2016-12-31T06:30:21.309Z,81
2016-12-31T06:31:27.336Z,81
2016-12-31T06:32:33.362Z,81
2016-12-31T06:33:39.381Z,81
2016-12-31T06:34:45.398Z,81
2016-12-31T06:35:51.423Z,81
2016-12-31T06:36:57.437Z,81
2016-12-31T06:38:03.457Z,81
2016-12-31T06:39:09.472Z,81
2016-12-31T06:40:15.500Z,81
2016-12-31T06:41:21.520Z,81
2016-12-31T06:42:27.546Z,81
2016-12-31T06:43:33.571Z,81
2016-12-31T06:44:39.586Z,80
2016-12-31T06:45:45.605Z,80
2016-12-31T06:46:51.624Z,80
2016-12-31T06:47:57.644Z,81
2016-12-31T06:49:03.668Z,80
2016-12-31T06:50:09.684Z,80
2016-12-31T06:51:15.730Z,80
2016-12-31T06:52:21.738Z,80
2016-12-31T06:53:27.765Z,80
2016-12-31T06:54:33.788Z,80
2016-12-31T06:55:39.811Z,81
2016-12-31T06:56:45.830Z,81
2016-12-31T06:57:51.858Z,81
2016-12-31T06:58:57.876Z,81
2016-12-31T07:00:03.941Z,81
2016-12-31T07:01:09.959Z,81
2016-12-31T07:02:15.980Z,81
2016-12-31T07:03:22.024Z,81
2016-12-31T07:04:28.050Z,81
2016-12-31T07:05:34.058Z,81
2016-12-31T07:06:40.087Z,81
2016-12-31T07:07:46.101Z,81
2016-12-31T07:08:52.195Z,81
2016-12-31T07:09:58.143Z,81
2016-12-31T07:11:04.165Z,81
2016-12-31T07:12:10.187Z,81
2016-12-31T07:13:16.217Z,81
2016-12-31T07:14:22.231Z,81
2016-12-31T07:15:28.252Z,81
2016-12-31T07:16:34.276Z,81
2016-12-31T07:17:40.292Z,81
2016-12-31T07:18:46.322Z,81
2016-12-31T07:19:52.344Z,81
2016-12-31T07:20:58.361Z,81
2016-12-31T07:22:03.709Z,81
2016-12-31T07:23:09.739Z,81
2016-12-31T07:24:15.767Z,81
2016-12-31T07:25:21.786Z,81
2016-12-31T07:26:27.796Z,81
2016-12-31T07:27:33.819Z,81
2016-12-31T07:28:39.833Z,81
2016-12-31T07:29:45.862Z,81
2016-12-31T07:30:51.904Z,81
2016-12-31T07:31:57.907Z,81
2016-12-31T07:33:03.917Z,81
2016-12-31T07:34:09.949Z,81
2016-12-31T07:35:15.978Z,81
2016-12-31T07:36:21.989Z,81
2016-12-31T07:37:28.006Z,81
2016-12-31T07:38:34.035Z,81
2016-12-31T07:39:40.054Z,81
2016-12-31T07:40:46.075Z,81
2016-12-31T07:41:52.088Z,81
2016-12-31T07:42:58.110Z,81
2016-12-31T07:44:04.131Z,81
2016-12-31T07:45:10.145Z,81
2016-12-31T07:46:16.170Z,81
2016-12-31T07:47:22.187Z,81
2016-12-31T07:48:28.208Z,81
2016-12-31T07:49:34.225Z,81
2016-12-31T07:50:40.260Z,82
2016-12-31T07:51:46.279Z,82
2016-12-31T07:52:52.319Z,82
2016-12-31T07:53:58.364Z,82
2016-12-31T07:55:04.620Z,82
2016-12-31T07:56:10.635Z,82
2016-12-31T07:57:16.653Z,82
2016-12-31T07:58:22.671Z,82
2016-12-31T07:59:28.727Z,81
2016-12-31T08:00:34.772Z,81
2016-12-31T08:01:41.022Z,81
2016-12-31T08:02:47.048Z,81
2016-12-31T08:03:53.064Z,81
2016-12-31T08:04:59.087Z,81
2016-12-31T08:06:05.113Z,82
2016-12-31T08:07:11.132Z,81
2016-12-31T08:08:17.149Z,81
2016-12-31T08:09:23.166Z,81
2016-12-31T08:10:29.180Z,81
2016-12-31T08:11:35.206Z,82
2016-12-31T08:12:41.218Z,82
2016-12-31T08:13:47.234Z,81
2016-12-31T08:14:53.258Z,81
2016-12-31T08:15:59.278Z,81
2016-12-31T08:17:05.298Z,81
2016-12-31T08:18:11.311Z,81
2016-12-31T08:19:17.336Z,81
2016-12-31T08:20:23.363Z,81
2016-12-31T08:21:29.381Z,81
2016-12-31T08:22:35.406Z,81
2016-12-31T08:23:41.438Z,81
2016-12-31T08:24:47.451Z,81
2016-12-31T08:25:53.470Z,81
2016-12-31T08:26:59.488Z,81
2016-12-31T08:28:05.511Z,81
2016-12-31T08:29:11.525Z,81
2016-12-31T08:30:17.543Z,81
2016-12-31T08:31:23.566Z,81
2016-12-31T08:32:29.594Z,81
2016-12-31T08:33:35.612Z,81
2016-12-31T08:34:41.632Z,81
2016-12-31T08:35:47.657Z,81
2016-12-31T08:36:53.681Z,81
2016-12-31T08:37:59.689Z,81
2016-12-31T08:39:05.711Z,81
2016-12-31T08:40:11.733Z,81
2016-12-31T08:41:17.762Z,81
2016-12-31T08:42:23.772Z,81
2016-12-31T08:43:29.796Z,81
2016-12-31T08:44:35.827Z,81
2016-12-31T08:45:41.839Z,81
2016-12-31T08:46:47.864Z,81
2016-12-31T08:47:53.892Z,81
2016-12-31T08:48:59.911Z,81
2016-12-31T08:50:05.925Z,81
2016-12-31T08:51:11.956Z,81
2016-12-31T08:52:17.974Z,81
2016-12-31T08:53:23.995Z,81
2016-12-31T08:54:30.013Z,81
2016-12-31T08:55:36.033Z,81
2016-12-31T08:56:42.063Z,81
2016-12-31T08:57:48.083Z,81
2016-12-31T08:58:54.111Z,81
2016-12-31T09:00:00.132Z,81
2016-12-31T09:01:06.154Z,81
2016-12-31T09:02:12.179Z,81
2016-12-31T09:03:18.198Z,81
2016-12-31T09:04:24.220Z,81
2016-12-31T09:05:30.237Z,81
2016-12-31T09:06:36.262Z,81
2016-12-31T09:07:42.282Z,81
2016-12-31T09:08:48.297Z,82
2016-12-31T09:09:54.325Z,82
2016-12-31T09:11:00.350Z,82
2016-12-31T09:12:06.370Z,82
2016-12-31T09:13:12.391Z,82
2016-12-31T09:14:18.418Z,82
2016-12-31T09:15:24.436Z,82
2016-12-31T09:16:30.458Z,82
2016-12-31T09:17:36.475Z,82
2016-12-31T09:18:42.498Z,82
2016-12-31T09:19:48.509Z,82
2016-12-31T09:20:54.536Z,82
2016-12-31T09:22:00.547Z,82
2016-12-31T09:23:06.570Z,82
2016-12-31T09:24:12.585Z,82
2016-12-31T09:25:18.607Z,82
2016-12-31T09:26:24.636Z,82
2016-12-31T09:27:30.657Z,82
2016-12-31T09:28:36.686Z,82
2016-12-31T09:29:42.701Z,82
2016-12-31T09:30:48.720Z,82
2016-12-31T09:31:54.742Z,82
2016-12-31T09:33:00.760Z,82
2016-12-31T09:34:06.779Z,82
2016-12-31T09:35:12.802Z,82
2016-12-31T09:36:18.814Z,82
2016-12-31T09:37:24.834Z,82
2016-12-31T09:38:30.863Z,82
2016-12-31T09:39:36.886Z,82
2016-12-31T09:40:42.914Z,82
2016-12-31T09:41:48.937Z,82
2016-12-31T09:42:54.955Z,82
2016-12-31T09:44:00.982Z,82
2016-12-31T09:45:06.994Z,82
2016-12-31T09:46:13.013Z,82
2016-12-31T09:47:19.036Z,82
2016-12-31T09:48:25.065Z,82
2016-12-31T09:49:31.082Z,82
2016-12-31T09:50:37.101Z,82
2016-12-31T09:51:43.119Z,82
2016-12-31T09:52:49.142Z,82
2016-12-31T09:53:55.159Z,82
2016-12-31T09:55:01.170Z,82
2016-12-31T09:56:07.188Z,82
2016-12-31T09:57:13.208Z,82
2016-12-31T09:58:19.233Z,82
2016-12-31T09:59:25.245Z,82
2016-12-31T10:00:31.269Z,82
2016-12-31T10:01:37.294Z,82
2016-12-31T10:02:43.315Z,82
2016-12-31T10:03:48.230Z,83
2016-12-31T10:04:54.251Z,83
2016-12-31T10:06:00.276Z,82
2016-12-31T10:07:06.293Z,82
2016-12-31T10:08:12.322Z,82
2016-12-31T10:09:18.344Z,83
2016-12-31T10:10:24.365Z,83
2016-12-31T10:11:30.377Z,83
2016-12-31T10:12:36.405Z,83
2016-12-31T10:13:42.424Z,83
2016-12-31T10:14:48.448Z,83
2016-12-31T10:15:54.461Z,83
2016-12-31T10:17:00.483Z,83
2016-12-31T10:18:06.501Z,83
2016-12-31T10:19:12.524Z,83
2016-12-31T10:20:18.543Z,83
2016-12-31T10:21:24.561Z,83
2016-12-31T10:22:30.593Z,83
2016-12-31T10:23:36.613Z,83
2016-12-31T10:24:42.625Z,83
2016-12-31T10:25:48.652Z,83
2016-12-31T10:26:54.689Z,83
2016-12-31T10:28:00.698Z,83
2016-12-31T10:29:06.715Z,83
2016-12-31T10:30:12.740Z,83
2016-12-31T10:31:18.759Z,83
2016-12-31T10:32:24.778Z,83
2016-12-31T10:33:30.796Z,83
2016-12-31T10:34:36.820Z,83
2016-12-31T10:35:42.846Z,83
2016-12-31T10:36:48.874Z,83
2016-12-31T10:37:54.907Z,83
2016-12-31T10:39:00.920Z,83
2016-12-31T10:40:06.944Z,83
2016-12-31T10:41:12.957Z,83
2016-12-31T10:42:18.985Z,83
2016-12-31T10:43:25.008Z,83
2016-12-31T10:44:31.031Z,83
2016-12-31T10:45:37.066Z,83
2016-12-31T10:46:43.081Z,83
2016-12-31T10:47:49.101Z,83
2016-12-31T10:48:55.123Z,83
2016-12-31T10:50:01.133Z,83
2016-12-31T10:51:07.152Z,83
2016-12-31T10:52:13.178Z,83
2016-12-31T10:53:19.197Z,83
2016-12-31T10:54:25.221Z,83
2016-12-31T10:55:31.241Z,83
2016-12-31T10:56:37.269Z,83
2016-12-31T10:57:43.287Z,83
2016-12-31T10:58:49.306Z,83
2016-12-31T10:59:55.332Z,83
2016-12-31T11:01:01.356Z,83
2016-12-31T11:02:07.385Z,83
2016-12-31T11:03:13.409Z,83
2016-12-31T11:04:19.430Z,82
2016-12-31T11:05:25.454Z,82
2016-12-31T11:06:31.469Z,82
2016-12-31T11:07:37.490Z,82
2016-12-31T11:08:43.515Z,82
2016-12-31T11:09:49.540Z,82
2016-12-31T11:10:55.556Z,82
2016-12-31T11:12:01.594Z,82
2016-12-31T11:13:07.616Z,82
2016-12-31T11:14:13.634Z,82
2016-12-31T11:15:19.644Z,82
2016-12-31T11:16:25.672Z,82
2016-12-31T11:17:31.689Z,82
2016-12-31T11:18:37.706Z,82
2016-12-31T11:19:43.721Z,82
2016-12-31T11:20:49.749Z,82
2016-12-31T11:21:55.777Z,82
2016-12-31T11:23:01.790Z,82
2016-12-31T11:24:07.811Z,82
2016-12-31T11:25:13.833Z,82
2016-12-31T11:26:19.861Z,82
2016-12-31T11:27:25.885Z,82
2016-12-31T11:28:31.914Z,82
2016-12-31T11:29:37.937Z,82
2016-12-31T11:30:43.948Z,82
2016-12-31T11:31:49.969Z,82
2016-12-31T11:32:55.995Z,82
2016-12-31T11:34:02.008Z,82
2016-12-31T11:35:08.018Z,82
2016-12-31T11:36:14.046Z,82
2016-12-31T11:37:20.070Z,82
2016-12-31T11:38:26.092Z,83
2016-12-31T11:39:32.105Z,83
2016-12-31T11:40:38.132Z,83
2016-12-31T11:41:44.153Z,83
2016-12-31T11:42:50.173Z,83
2016-12-31T11:43:56.181Z,83
2016-12-31T11:45:02.211Z,83
2016-12-31T11:46:08.230Z,83
2016-12-31T11:47:14.259Z,83
2016-12-31T11:48:20.271Z,83
2016-12-31T11:49:26.293Z,83
2016-12-31T11:50:32.319Z,83
2016-12-31T11:51:38.339Z,83
2016-12-31T11:52:44.365Z,83
2016-12-31T11:53:50.379Z,83
2016-12-31T11:54:56.399Z,83
2016-12-31T11:56:02.422Z,83
2016-12-31T11:57:08.449Z,83
2016-12-31T11:58:14.470Z,83
2016-12-31T11:59:20.490Z,83
2016-12-31T12:00:26.509Z,83
2016-12-31T12:01:32.527Z,83
2016-12-31T12:02:38.548Z,83
2016-12-31T12:03:44.564Z,83
2016-12-31T12:04:50.581Z,83
2016-12-31T12:05:56.613Z,83
2016-12-31T12:07:02.642Z,83
2016-12-31T12:08:08.655Z,83
2016-12-31T12:09:14.667Z,83
2016-12-31T12:10:20.693Z,83
2016-12-31T12:11:26.727Z,83
2016-12-31T12:12:32.738Z,83
2016-12-31T12:13:38.759Z,83
2016-12-31T12:14:44.772Z,83
2016-12-31T12:15:50.796Z,83
2016-12-31T12:16:56.818Z,83
2016-12-31T12:18:02.834Z,83
2016-12-31T12:19:08.871Z,83
2016-12-31T12:20:14.887Z,83
2016-12-31T12:21:20.909Z,83
2016-12-31T12:22:26.932Z,83
2016-12-31T12:23:32.956Z,83
2016-12-31T12:24:38.982Z,83
2016-12-31T12:25:45.001Z,83
2016-12-31T12:26:51.027Z,83
2016-12-31T12:27:57.040Z,83
2016-12-31T12:29:03.056Z,83
2016-12-31T12:30:09.075Z,83
2016-12-31T12:31:15.096Z,83
2016-12-31T12:32:21.118Z,83
2016-12-31T12:33:27.138Z,83
2016-12-31T12:34:33.155Z,83
2016-12-31T12:35:39.175Z,83
2016-12-31T12:36:45.197Z,83
2016-12-31T12:37:51.216Z,83
2016-12-31T12:38:57.231Z,83
2016-12-31T12:40:03.252Z,83
2016-12-31T12:41:09.275Z,83
2016-12-31T12:42:15.296Z,83
2016-12-31T12:43:21.311Z,83
2016-12-31T12:44:27.379Z,83
2016-12-31T12:45:33.390Z,83
2016-12-31T12:46:39.426Z,83
2016-12-31T12:47:45.439Z,83
2016-12-31T12:48:51.491Z,83
2016-12-31T12:49:57.521Z,83
2016-12-31T12:51:03.541Z,83
2016-12-31T12:52:09.573Z,83
2016-12-31T12:53:15.594Z,83
2016-12-31T12:54:21.616Z,83
2016-12-31T12:55:27.632Z,83
2016-12-31T12:56:33.658Z,83
2016-12-31T12:57:39.684Z,83
2016-12-31T12:58:45.695Z,83
2016-12-31T12:59:51.711Z,83
2016-12-31T13:00:57.734Z,83
2016-12-31T13:02:03.757Z,83
2016-12-31T13:03:09.768Z,83
2016-12-31T13:04:15.800Z,83
2016-12-31T13:05:21.828Z,83
2016-12-31T13:06:27.851Z,83
2016-12-31T13:07:33.866Z,83
2016-12-31T13:08:39.886Z,83
2016-12-31T13:09:45.913Z,83
2016-12-31T13:10:51.932Z,83
2016-12-31T13:11:57.945Z,83
2016-12-31T13:13:03.980Z,83
2016-12-31T13:14:09.995Z,83
2016-12-31T13:15:16.013Z,83
2016-12-31T13:16:22.034Z,83
2016-12-31T13:17:28.087Z,83
2016-12-31T13:18:34.120Z,83
2016-12-31T13:19:40.145Z,83
2016-12-31T13:20:46.166Z,83
2016-12-31T13:21:52.192Z,83
2016-12-31T13:22:58.223Z,83
2016-12-31T13:24:04.248Z,83
2016-12-31T13:25:10.286Z,83
2016-12-31T13:26:16.311Z,83
2016-12-31T13:27:22.328Z,83
2016-12-31T13:28:28.343Z,83
2016-12-31T13:29:34.361Z,84
2016-12-31T13:30:40.378Z,84
2016-12-31T13:31:46.400Z,84
2016-12-31T13:32:52.427Z,84
2016-12-31T13:33:58.448Z,84
2016-12-31T13:35:04.471Z,84
2016-12-31T13:36:10.495Z,84
2016-12-31T13:37:16.512Z,84
2016-12-31T13:38:22.539Z,84
2016-12-31T13:39:28.560Z,84
2016-12-31T13:40:34.580Z,84
2016-12-31T13:41:40.598Z,83
2016-12-31T13:42:46.621Z,84
2016-12-31T13:43:52.647Z,84
2016-12-31T13:44:58.667Z,84
2016-12-31T13:46:04.675Z,84
2016-12-31T13:47:10.698Z,84
2016-12-31T13:48:16.720Z,84
2016-12-31T13:49:22.739Z,84
2016-12-31T13:50:28.769Z,84
2016-12-31T13:51:34.787Z,84
2016-12-31T13:52:40.807Z,84
2016-12-31T13:53:46.824Z,84
2016-12-31T13:54:52.842Z,84
2016-12-31T13:55:58.868Z,84
2016-12-31T13:57:04.885Z,83
2016-12-31T13:58:10.912Z,83
2016-12-31T13:59:16.926Z,83
2016-12-31T14:00:22.944Z,83
2016-12-31T14:01:28.964Z,83
2016-12-31T14:02:34.979Z,83
2016-12-31T14:03:41.005Z,83
2016-12-31T14:04:47.022Z,83
2016-12-31T14:05:53.047Z,83
2016-12-31T14:06:59.060Z,83
2016-12-31T14:08:05.092Z,83
2016-12-31T14:09:11.113Z,83
2016-12-31T14:10:17.136Z,83
2016-12-31T14:11:23.148Z,83
2016-12-31T14:12:29.175Z,83
2016-12-31T14:13:35.195Z,83
2016-12-31T14:14:41.208Z,83
2016-12-31T14:15:47.221Z,83
2016-12-31T14:16:53.252Z,83
2016-12-31T14:17:59.276Z,83
2016-12-31T14:19:05.298Z,83
2016-12-31T14:20:11.325Z,83
2016-12-31T14:21:17.338Z,83
2016-12-31T14:22:23.357Z,83
2016-12-31T14:23:29.383Z,83
2016-12-31T14:24:35.409Z,83
2016-12-31T14:25:41.433Z,83
2016-12-31T14:26:47.453Z,83
2016-12-31T14:27:53.469Z,83
2016-12-31T14:28:59.499Z,83
2016-12-31T14:30:05.517Z,83
2016-12-31T14:31:11.529Z,83
2016-12-31T14:32:17.554Z,83
2016-12-31T14:33:23.580Z,83
2016-12-31T14:34:29.605Z,83
2016-12-31T14:35:35.618Z,83
2016-12-31T14:36:41.644Z,83
2016-12-31T14:37:47.662Z,83
2016-12-31T14:38:53.684Z,83
2016-12-31T14:39:59.694Z,83
2016-12-31T14:41:05.719Z,83
2016-12-31T14:42:11.744Z,83
2016-12-31T14:43:17.759Z,83
2016-12-31T14:44:23.779Z,83
2016-12-31T14:45:29.807Z,83
2016-12-31T14:46:35.825Z,83
2016-12-31T14:47:41.843Z,83
2016-12-31T14:48:47.870Z,83
2016-12-31T14:49:53.891Z,84
2016-12-31T14:50:59.909Z,84
2016-12-31T14:52:05.932Z,84
2016-12-31T14:53:11.951Z,84
2016-12-31T14:54:17.972Z,84
2016-12-31T14:55:23.988Z,84
2016-12-31T14:56:30.008Z,84
2016-12-31T14:57:36.028Z,84
2016-12-31T14:58:42.049Z,84
2016-12-31T14:59:48.068Z,84
2016-12-31T15:00:54.085Z,84
2016-12-31T15:02:00.114Z,84
2016-12-31T15:03:06.136Z,84
2016-12-31T15:04:12.157Z,84
2016-12-31T15:05:18.177Z,84
2016-12-31T15:06:24.194Z,84
2016-12-31T15:07:30.211Z,84
2016-12-31T15:08:36.233Z,84
2016-12-31T15:09:42.253Z,84
2016-12-31T15:10:48.279Z,84
2016-12-31T15:11:54.303Z,84
2016-12-31T15:13:00.323Z,84
2016-12-31T15:14:06.348Z,84
2016-12-31T15:15:12.367Z,84
2016-12-31T15:16:18.389Z,84
2016-12-31T15:17:24.407Z,84
2016-12-31T15:18:30.429Z,84
2016-12-31T15:19:36.452Z,84
2016-12-31T15:20:42.476Z,84
2016-12-31T15:21:48.494Z,84
2016-12-31T15:22:54.517Z,84
2016-12-31T15:24:00.536Z,84
2016-12-31T15:25:06.552Z,84
2016-12-31T15:26:12.570Z,84
2016-12-31T15:27:18.592Z,84
2016-12-31T15:28:24.612Z,84
2016-12-31T15:29:30.633Z,84
2016-12-31T15:30:36.656Z,84
2016-12-31T15:31:42.681Z,84
2016-12-31T15:32:48.701Z,85
2016-12-31T15:33:54.723Z,85
2016-12-31T15:35:00.737Z,85
2016-12-31T15:36:06.757Z,85
2016-12-31T15:37:12.778Z,85
2016-12-31T15:38:18.798Z,85
2016-12-31T15:39:24.811Z,85
2016-12-31T15:40:30.843Z,85
2016-12-31T15:41:36.861Z,85